createdAt,value
2023-03-14T00:02:07.057Z,98466.10
2023-03-14T00:05:32.731Z,98471.95
2023-03-14T00:08:58.514Z,98464.14
2023-03-14T00:12:24.477Z,98464.88
2023-03-14T00:15:50.574Z,98459.71
2023-03-14T00:19:18.496Z,98463.82
2023-03-14T00:22:44.268Z,98450.69
2023-03-14T00:26:09.561Z,98445.53
2023-03-14T00:29:35.689Z,98445.31
2023-03-14T00:33:03.223Z,98445.48
2023-03-14T00:36:30.327Z,98441.52
2023-03-14T00:39:56.787Z,98435.00
2023-03-14T00:43:23.727Z,98434.27
2023-03-14T00:46:49.469Z,98429.20
2023-03-14T00:50:16.159Z,98429.64
2023-03-14T00:53:42.310Z,98434.11
2023-03-14T00:57:06.221Z,98429.68
2023-03-14T01:00:32.034Z,98439.28
2023-03-14T01:03:58.378Z,98437.91
2023-03-14T01:07:25.622Z,98432.85
2023-03-14T01:10:51.221Z,98427.52
2023-03-14T01:14:34.494Z,98419.05
2023-03-14T01:18:00.314Z,98413.45
2023-03-14T01:21:28.941Z,98392.35
2023-03-14T01:24:54.826Z,98385.09
2023-03-14T01:28:21.123Z,98373.83
2023-03-14T01:32:03.927Z,98358.60
2023-03-14T01:35:29.639Z,98348.65
2023-03-14T01:38:55.634Z,98334.06
2023-03-14T01:42:40.444Z,98336.02
2023-03-14T01:46:20.058Z,98317.89
2023-03-14T01:49:47.771Z,98313.60
2023-03-14T01:53:13.537Z,98283.63
2023-03-14T01:56:40.453Z,98283.25
2023-03-14T02:00:23.090Z,98305.58
2023-03-14T02:03:52.322Z,98302.70
2023-03-14T02:07:20.912Z,98311.36
2023-03-14T02:10:47.717Z,98315.66
2023-03-14T02:14:16.606Z,98316.80
2023-03-14T02:17:54.418Z,98315.27
2023-03-14T02:21:45.394Z,98313.86
2023-03-14T02:25:15.344Z,98303.08
2023-03-14T02:28:39.124Z,98304.06
2023-03-14T02:32:05.286Z,98309.44
2023-03-14T02:35:33.696Z,98301.27
2023-03-14T02:39:24.793Z,98299.80
2023-03-14T02:42:51.217Z,98304.69
2023-03-14T02:46:34.459Z,98314.80
2023-03-14T02:50:04.652Z,98324.11
2023-03-14T02:53:32.567Z,98314.59
2023-03-14T02:57:33.392Z,98315.06
2023-03-14T03:04:43.418Z,98328.68
2023-03-14T03:08:10.094Z,98326.15
2023-03-14T03:11:36.253Z,98320.63
2023-03-14T03:15:02.838Z,98313.53
2023-03-14T03:18:28.750Z,98309.21
2023-03-14T03:21:54.803Z,98302.69
2023-03-14T03:25:20.728Z,98300.46
2023-03-14T03:28:46.551Z,98286.34
2023-03-14T03:32:12.589Z,98284.02
2023-03-14T03:35:44.329Z,98265.59
2023-03-14T03:39:10.064Z,98259.19
2023-03-14T03:42:35.805Z,98249.52
2023-03-14T03:46:04.534Z,98240.35
2023-03-14T03:49:32.052Z,98257.71
2023-03-14T03:52:57.695Z,98250.00
2023-03-14T03:56:23.468Z,98236.76
2023-03-14T03:59:49.121Z,98228.73
2023-03-14T04:03:15.250Z,98215.88
2023-03-14T04:06:42.961Z,98216.30
2023-03-14T04:10:26.762Z,98217.65
2023-03-14T04:13:58.354Z,98218.08
2023-03-14T04:17:24.636Z,98216.88
2023-03-14T04:20:52.506Z,98214.30
2023-03-14T04:24:17.628Z,98221.37
2023-03-14T04:27:42.125Z,98216.66
2023-03-14T04:31:10.682Z,98203.05
2023-03-14T04:34:36.489Z,98216.92
2023-03-14T04:38:03.944Z,98226.60
2023-03-14T04:41:30.495Z,98220.71
2023-03-14T04:44:56.565Z,98199.48
2023-03-14T04:48:24.471Z,98193.20
2023-03-14T04:51:51.760Z,98201.19
2023-03-14T04:55:16.047Z,98202.73
2023-03-14T04:58:41.969Z,98187.44
2023-03-14T05:02:09.012Z,98178.75
2023-03-14T05:05:32.938Z,98182.86
2023-03-14T05:09:02.498Z,98191.12
2023-03-14T05:12:26.384Z,98186.56
2023-03-14T05:15:51.698Z,98187.44
2023-03-14T05:19:17.813Z,98203.98
2023-03-14T05:22:55.559Z,98212.50
2023-03-14T05:26:24.196Z,98218.25
2023-03-14T05:29:52.792Z,98211.80
2023-03-14T05:33:17.085Z,98210.77
2023-03-14T05:36:42.874Z,98203.66
2023-03-14T05:40:12.554Z,98212.23
2023-03-14T05:43:38.573Z,98212.52
2023-03-14T05:47:16.232Z,98207.47
2023-03-14T05:50:44.875Z,98199.32
2023-03-14T05:54:10.573Z,98206.90
2023-03-14T05:57:38.951Z,98203.52
2023-03-14T06:01:08.114Z,98200.08
2023-03-14T06:04:36.425Z,98207.34
2023-03-14T06:08:02.158Z,98200.10
2023-03-14T06:11:28.131Z,98205.26
2023-03-14T06:14:54.913Z,98200.99
2023-03-14T06:18:20.566Z,98204.99
2023-03-14T06:21:46.607Z,98199.93
2023-03-14T06:25:12.379Z,98195.72
2023-03-14T06:28:38.430Z,98198.45
2023-03-14T06:32:05.586Z,98210.42
2023-03-14T06:35:31.374Z,98197.77
2023-03-14T06:38:57.414Z,98206.27
2023-03-14T06:42:24.038Z,98206.46
2023-03-14T06:45:50.066Z,98197.05
2023-03-14T06:49:15.936Z,98194.46
2023-03-14T06:52:34.276Z,98194.61
2023-03-14T06:55:59.994Z,98197.81
2023-03-14T06:59:25.823Z,98192.30
2023-03-14T07:02:51.590Z,98199.06
2023-03-14T07:06:26.616Z,98193.85
2023-03-14T07:09:52.791Z,98182.81
2023-03-14T07:13:19.853Z,98188.31
2023-03-14T07:16:46.210Z,98186.98
2023-03-14T07:20:12.866Z,98195.81
2023-03-14T07:23:38.909Z,98193.38
2023-03-14T07:27:04.787Z,98189.32
2023-03-14T07:30:30.515Z,98182.72
2023-03-14T07:33:57.282Z,98180.48
2023-03-14T07:38:10.258Z,98171.77
2023-03-14T07:41:09.999Z,98165.65
2023-03-14T07:44:36.185Z,98179.85
2023-03-14T07:48:03.135Z,98182.15
2023-03-14T07:51:28.857Z,98176.02
2023-03-14T07:54:54.511Z,98183.23
2023-03-14T07:58:13.623Z,98188.23
2023-03-14T08:01:39.288Z,98193.71
2023-03-14T08:05:05.097Z,98188.91
2023-03-14T08:08:30.867Z,98183.47
2023-03-14T08:11:58.724Z,98191.48
2023-03-14T08:15:24.793Z,98183.44
2023-03-14T08:18:50.928Z,98193.83
2023-03-14T08:22:19.363Z,98193.08
2023-03-14T08:25:45.708Z,98199.67
2023-03-14T08:29:11.473Z,98198.92
2023-03-14T08:32:30.175Z,98208.02
2023-03-14T08:35:57.424Z,98206.71
2023-03-14T08:39:24.351Z,98209.41
2023-03-14T08:42:50.050Z,98202.96
2023-03-14T08:46:15.824Z,98200.04
2023-03-14T08:49:41.881Z,98196.96
2023-03-14T08:52:50.500Z,98189.08
2023-03-14T08:55:58.769Z,98182.11
2023-03-14T08:59:24.497Z,98189.59
2023-03-14T09:02:30.140Z,98192.52
2023-03-14T09:05:36.551Z,98200.08
2023-03-14T09:08:42.033Z,98206.20
2023-03-14T09:11:47.843Z,98208.29
2023-03-14T09:14:53.644Z,98212.71
2023-03-14T09:18:00.014Z,98214.80
2023-03-14T09:21:06.492Z,98201.22
2023-03-14T09:24:12.316Z,98193.63
2023-03-14T09:27:18.013Z,98190.98
2023-03-14T09:30:26.349Z,98204.54
2023-03-14T09:33:42.233Z,98207.94
2023-03-14T09:37:08.570Z,98200.40
2023-03-14T09:40:15.738Z,98199.98
2023-03-14T09:43:22.759Z,98201.61
2023-03-14T09:46:28.357Z,98207.53
2023-03-14T09:49:34.664Z,98197.42
2023-03-14T09:52:42.645Z,98197.63
2023-03-14T09:55:49.429Z,98195.66
2023-03-14T09:59:07.826Z,98191.41
2023-03-14T10:02:19.268Z,98191.20
2023-03-14T10:05:34.247Z,98186.80
2023-03-14T10:08:41.896Z,98187.48
2023-03-14T10:11:50.697Z,98183.42
2023-03-14T10:14:56.335Z,98190.65
2023-03-14T10:18:02.785Z,98197.79
2023-03-14T10:21:19.644Z,98198.03
2023-03-14T10:24:31.516Z,98199.44
2023-03-14T10:27:47.116Z,98204.34
2023-03-14T10:30:55.599Z,98206.05
2023-03-14T10:34:02.246Z,98205.68
2023-03-14T10:37:23.527Z,98199.11
2023-03-14T10:40:30.972Z,98202.89
2023-03-14T10:43:38.567Z,98197.78
2023-03-14T10:46:44.222Z,98209.94
2023-03-14T10:50:24.553Z,98212.36
2023-03-14T10:53:35.101Z,98213.42
2023-03-14T10:56:40.611Z,98205.57
2023-03-14T10:59:50.067Z,98209.89
2023-03-14T11:03:06.787Z,98197.09
2023-03-14T11:06:16.841Z,98196.79
2023-03-14T11:09:31.808Z,98190.11
2023-03-14T11:12:44.265Z,98187.58
2023-03-14T11:15:56.129Z,98193.57
2023-03-14T11:19:17.193Z,98195.54
2023-03-14T11:22:34.305Z,98199.02
2023-03-14T11:25:45.455Z,98196.23
2023-03-14T11:28:52.173Z,98185.67
2023-03-14T11:32:04.074Z,98189.74
2023-03-14T11:35:17.820Z,98190.69
2023-03-14T11:38:39.616Z,98189.04
2023-03-14T11:41:46.477Z,98189.65
2023-03-14T11:44:52.142Z,98187.91
2023-03-14T11:48:06.596Z,98196.25
2023-03-14T11:51:16.099Z,98192.52
2023-03-14T11:54:27.387Z,98188.37
2023-03-14T11:57:33.008Z,98181.73
2023-03-14T12:00:40.919Z,98175.54
2023-03-14T12:03:52.396Z,98170.39
2023-03-14T12:06:58.952Z,98168.27
2023-03-14T12:10:05.415Z,98172.20
2023-03-14T12:13:11.929Z,98173.33
2023-03-14T12:16:29.263Z,98184.91
2023-03-14T12:19:41.872Z,98194.88
2023-03-14T12:23:13.316Z,98187.65
2023-03-14T12:26:23.338Z,98179.30
2023-03-14T12:29:29.318Z,98182.15
2023-03-14T12:32:38.253Z,98184.70
2023-03-14T12:36:32.209Z,98191.78
2023-03-14T12:39:37.142Z,98188.44
2023-03-14T12:42:52.442Z,98187.96
2023-03-14T12:46:10.828Z,98192.65
2023-03-14T12:49:16.440Z,98190.46
2023-03-14T12:52:34.073Z,98183.07
2023-03-14T12:55:42.580Z,98188.85
2023-03-14T12:59:02.833Z,98186.34
2023-03-14T13:02:23.399Z,98178.81
2023-03-14T13:05:29.173Z,98184.09
2023-03-14T13:08:40.613Z,98189.44
2023-03-14T13:11:46.492Z,98187.30
2023-03-14T13:14:54.818Z,98184.82
2023-03-14T13:18:11.315Z,98184.09
2023-03-14T13:21:18.734Z,98186.80
2023-03-14T13:24:44.626Z,98179.30
2023-03-14T13:28:00.611Z,98199.03
2023-03-14T13:31:07.437Z,98198.13
2023-03-14T13:34:13.359Z,98187.88
2023-03-14T13:37:21.433Z,98194.17
2023-03-14T13:40:31.626Z,98189.06
2023-03-14T13:43:38.483Z,98181.60
2023-03-14T13:46:43.981Z,98178.23
2023-03-14T13:49:50.980Z,98181.59
2023-03-14T13:52:59.801Z,98173.80
2023-03-14T13:56:05.916Z,98165.30
2023-03-14T13:59:28.279Z,98167.98
2023-03-14T14:02:41.591Z,98164.38
2023-03-14T14:05:58.613Z,98163.84
2023-03-14T14:09:06.819Z,98158.44
2023-03-14T14:12:17.742Z,98155.62
2023-03-14T14:15:24.555Z,98143.05
2023-03-14T14:18:31.754Z,98148.22
2023-03-14T14:21:40.192Z,98146.54
2023-03-14T14:24:50.322Z,98149.67
2023-03-14T14:28:18.016Z,98147.87
2023-03-14T14:31:24.153Z,98142.71
2023-03-14T14:34:29.935Z,98140.94
2023-03-14T14:37:36.319Z,98142.61
2023-03-14T14:40:47.506Z,98147.77
2023-03-14T14:44:31.841Z,98149.68
2023-03-14T14:47:34.747Z,98150.27
2023-03-14T14:51:00.476Z,98149.32
2023-03-14T14:54:11.385Z,98151.20
2023-03-14T14:57:20.217Z,98150.35
2023-03-14T15:00:27.818Z,98146.50
2023-03-14T15:03:34.287Z,98150.54
2023-03-14T15:06:44.285Z,98152.86
2023-03-14T15:09:50.033Z,98152.31
2023-03-14T15:13:01.642Z,98144.61
2023-03-14T15:16:12.976Z,98141.55
2023-03-14T15:19:24.811Z,98136.42
2023-03-14T15:22:31.126Z,98130.45
2023-03-14T15:25:54.658Z,98126.15
2023-03-14T15:29:04.007Z,98123.52
2023-03-14T15:32:11.874Z,98125.05
2023-03-14T15:35:20.501Z,98123.49
2023-03-14T15:38:27.236Z,98118.30
2023-03-14T15:41:36.148Z,98124.35
2023-03-14T15:44:44.505Z,98128.92
2023-03-14T15:47:50.361Z,98134.17
2023-03-14T15:50:56.097Z,98133.52
2023-03-14T15:54:05.099Z,98126.67
2023-03-14T15:57:12.079Z,98123.24
2023-03-14T16:00:29.139Z,98123.30
2023-03-14T16:03:45.238Z,98124.55
2023-03-14T16:06:51.954Z,98125.77
2023-03-14T16:09:57.764Z,98129.21
2023-03-14T16:13:12.495Z,98124.59
2023-03-14T16:16:18.329Z,98127.23
2023-03-14T16:19:23.823Z,98122.77
2023-03-14T16:22:30.515Z,98120.94
2023-03-14T16:25:40.425Z,98121.64
2023-03-14T16:28:46.732Z,98130.27
2023-03-14T16:31:52.415Z,98133.70
2023-03-14T16:34:58.224Z,98135.03
2023-03-14T16:38:04.164Z,98132.81
2023-03-14T16:41:12.495Z,98132.59
2023-03-14T16:44:18.112Z,98136.75
2023-03-14T16:47:23.560Z,98138.45
2023-03-14T16:50:28.864Z,98138.70
2023-03-14T16:53:37.576Z,98140.34
2023-03-14T16:56:44.340Z,98148.94
2023-03-14T16:59:52.659Z,98154.89
2023-03-14T17:03:10.792Z,98159.79
2023-03-14T17:06:18.983Z,98157.84
2023-03-14T17:09:28.674Z,98165.90
2023-03-14T17:12:36.946Z,98172.79
2023-03-14T17:15:45.783Z,98182.39
2023-03-14T17:18:51.597Z,98188.02
2023-03-14T17:22:09.443Z,98183.52
2023-03-14T17:25:22.860Z,98185.52
2023-03-14T17:28:28.714Z,98189.75
2023-03-14T17:31:41.564Z,98192.92
2023-03-14T17:34:49.034Z,98197.13
2023-03-14T17:37:55.707Z,98194.95
2023-03-14T17:41:02.947Z,98201.91
2023-03-14T17:44:12.774Z,98197.70
2023-03-14T17:47:21.549Z,98200.73
2023-03-14T17:50:29.728Z,98203.92
2023-03-14T17:53:37.546Z,98206.48
2023-03-14T17:56:52.873Z,98200.83
2023-03-14T18:00:08.476Z,98201.23
2023-03-14T18:03:14.718Z,98199.70
2023-03-14T18:06:23.819Z,98196.59
2023-03-14T18:09:49.459Z,98192.77
2023-03-14T18:13:00.646Z,98191.69
2023-03-14T18:16:08.374Z,98198.46
2023-03-14T18:19:14.273Z,98200.91
2023-03-14T18:22:21.661Z,98203.13
2023-03-14T18:25:45.748Z,98212.04
2023-03-14T18:28:51.383Z,98209.52
2023-03-14T18:31:58.372Z,98208.27
2023-03-14T18:35:04.206Z,98209.80
2023-03-14T18:38:09.920Z,98210.61
2023-03-14T18:41:16.155Z,98207.23
2023-03-14T18:44:21.858Z,98205.60
2023-03-14T18:47:27.995Z,98207.11
2023-03-14T18:50:33.865Z,98213.45
2023-03-14T18:53:39.886Z,98221.41
2023-03-14T18:57:05.884Z,98232.23
2023-03-14T19:00:16.278Z,98232.14
2023-03-14T19:03:31.739Z,98230.73
2023-03-14T19:06:37.170Z,98230.33
2023-03-14T19:09:45.418Z,98233.98
2023-03-14T19:12:59.932Z,98245.50
2023-03-14T19:16:07.088Z,98250.24
2023-03-14T19:19:32.859Z,98285.88
2023-03-14T19:22:45.851Z,98409.76
2023-03-14T19:26:02.963Z,98471.09
2023-03-14T19:29:18.430Z,98489.00
2023-03-14T19:32:45.354Z,98492.14
2023-03-14T19:36:00.234Z,98523.77
2023-03-14T19:39:17.930Z,98547.95
2023-03-14T19:42:43.465Z,98562.75
2023-03-14T19:45:49.216Z,98585.89
2023-03-14T19:49:00.160Z,98628.95
2023-03-14T19:52:14.694Z,98659.24
2023-03-14T19:55:40.212Z,98682.29
2023-03-14T19:59:10.389Z,98703.45
2023-03-14T20:02:20.161Z,98728.76
2023-03-14T20:05:34.718Z,98746.04
2023-03-14T20:08:57.575Z,98771.83
2023-03-14T20:12:24.177Z,98793.65
2023-03-14T20:15:30.284Z,98819.98
2023-03-14T20:18:59.105Z,98815.64
2023-03-14T20:22:16.420Z,98824.11
2023-03-14T20:25:45.327Z,98836.00
2023-03-14T20:29:03.919Z,98854.54
2023-03-14T20:32:16.052Z,98870.45
2023-03-14T20:35:25.872Z,98879.02
2023-03-14T20:38:51.995Z,98893.31
2023-03-14T20:42:09.385Z,98905.67
2023-03-14T20:45:36.024Z,98916.06
2023-03-14T20:49:18.886Z,98927.45
2023-03-14T20:52:28.299Z,98937.11
2023-03-14T20:55:57.201Z,98964.42
2023-03-14T21:00:03.318Z,98965.68
2023-03-14T21:03:25.505Z,98980.84
2023-03-14T21:07:01.362Z,98980.94
2023-03-14T21:10:47.161Z,98999.88
2023-03-14T21:14:13.748Z,99018.48
2023-03-14T21:17:42.765Z,99040.26
2023-03-14T21:21:11.227Z,99058.38
2023-03-14T21:24:21.031Z,99070.66
2023-03-14T21:27:39.052Z,99079.67
2023-03-14T21:31:04.569Z,99089.15
2023-03-14T21:34:18.001Z,99099.66
2023-03-14T21:37:32.064Z,99112.45
2023-03-14T21:40:50.101Z,99119.86
2023-03-14T21:44:06.003Z,99132.47
2023-03-14T21:47:17.106Z,99136.49
2023-03-14T21:50:32.077Z,99138.77
2023-03-14T21:53:48.138Z,99154.20
2023-03-14T21:57:02.937Z,99157.31
2023-03-14T22:00:17.033Z,99163.66
2023-03-14T22:03:28.246Z,99174.69
2023-03-14T22:06:38.842Z,99180.96
2023-03-14T22:09:49.444Z,99185.73
2023-03-14T22:12:58.074Z,99184.51
2023-03-14T22:16:07.169Z,99183.70
2023-03-14T22:19:15.633Z,99189.61
2023-03-14T22:22:28.657Z,99193.32
2023-03-14T22:25:54.124Z,99207.85
2023-03-14T22:29:18.626Z,99212.89
2023-03-14T22:32:33.928Z,99213.10
2023-03-14T22:35:42.521Z,99221.48
2023-03-14T22:38:48.066Z,99219.63
2023-03-14T22:41:53.747Z,99218.88
2023-03-14T22:44:59.243Z,99218.38
2023-03-14T22:48:05.036Z,99226.06
2023-03-14T22:51:24.492Z,99229.18
2023-03-14T22:54:35.928Z,99234.33
2023-03-14T22:57:46.636Z,99227.20
2023-03-14T23:00:54.717Z,99229.30
2023-03-14T23:04:02.179Z,99234.82
2023-03-14T23:07:18.135Z,99246.41
2023-03-14T23:10:44.409Z,99248.64
2023-03-14T23:13:50.937Z,99254.70
2023-03-14T23:17:16.912Z,99269.75
2023-03-14T23:20:26.311Z,99271.58
2023-03-14T23:46:26.358Z,99365.39
2023-03-14T23:49:36.642Z,99368.69
2023-03-14T23:52:53.130Z,99374.63
2023-03-14T23:56:19.066Z,99382.31
2023-03-14T23:59:30.039Z,99388.88
